createdAt,value
2019-03-22T00:00:37.987Z,10.70
2019-03-22T00:03:07.953Z,10.70
2019-03-22T00:05:38.300Z,10.70
2019-03-22T00:08:08.622Z,10.70
2019-03-22T00:10:38.086Z,10.70
2019-03-22T00:13:08.739Z,10.70
2019-03-22T00:15:38.414Z,10.70
2019-03-22T00:18:09.236Z,10.60
2019-03-22T00:20:39.219Z,10.60
2019-03-22T00:23:08.881Z,10.60
2019-03-22T00:25:38.775Z,10.60
2019-03-22T00:28:08.879Z,10.60
2019-03-22T00:30:38.553Z,10.60
2019-03-22T00:33:07.913Z,10.60
2019-03-22T00:35:37.802Z,10.60
2019-03-22T00:38:07.162Z,10.60
2019-03-22T00:40:37.825Z,10.60
2019-03-22T00:43:07.305Z,10.60
2019-03-22T00:45:37.587Z,10.50
2019-03-22T00:48:06.957Z,10.60
2019-03-22T00:50:36.323Z,10.50
2019-03-22T00:53:05.950Z,10.50
2019-03-22T00:55:36.273Z,10.50
2019-03-22T00:58:05.743Z,10.50
2019-03-22T01:00:35.203Z,10.50
2019-03-22T01:03:04.971Z,10.50
2019-03-22T01:05:35.028Z,10.50
2019-03-22T01:08:04.707Z,10.50
2019-03-22T01:10:35.105Z,10.50
2019-03-22T01:13:04.518Z,10.50
2019-03-22T01:15:34.435Z,10.50
2019-03-22T01:18:04.683Z,10.50
2019-03-22T01:20:34.314Z,10.50
2019-03-22T01:23:03.970Z,10.50
2019-03-22T01:25:33.672Z,10.50
2019-03-22T01:28:03.319Z,10.50
2019-03-22T01:30:33.498Z,10.50
2019-03-22T01:33:03.328Z,10.50
2019-03-22T01:35:33.494Z,10.60
2019-03-22T01:38:02.955Z,10.50
2019-03-22T01:40:32.836Z,10.50
2019-03-22T01:43:03.579Z,10.50
2019-03-22T01:45:33.186Z,10.50
2019-03-22T01:48:03.623Z,10.50
2019-03-22T01:50:33.084Z,10.50
2019-03-22T01:53:02.479Z,10.50
2019-03-22T01:58:08.019Z,10.50
2019-03-22T02:03:15.788Z,10.50
2019-03-22T02:05:46.719Z,10.50
2019-03-22T02:08:17.311Z,10.60
2019-03-22T02:10:47.475Z,10.60
2019-03-22T02:13:20.800Z,10.60
2019-03-22T02:15:51.378Z,10.60
2019-03-22T02:18:21.569Z,10.60
2019-03-22T02:20:53.492Z,10.60
2019-03-22T02:23:25.864Z,10.60
2019-03-22T02:25:56.039Z,10.60
2019-03-22T02:28:32.499Z,10.60
2019-03-22T02:31:03.394Z,10.70
2019-03-22T02:33:35.701Z,10.70
2019-03-22T02:36:05.892Z,10.70
2019-03-22T02:38:38.242Z,10.70
2019-03-22T02:41:07.786Z,10.70
2019-03-22T02:43:37.522Z,10.70
2019-03-22T02:46:07.885Z,10.70
2019-03-22T02:48:38.469Z,10.70
2019-03-22T02:51:08.559Z,10.70
2019-03-22T02:53:37.920Z,10.70
2019-03-22T02:56:09.663Z,10.70
2019-03-22T02:58:39.024Z,10.60
2019-03-22T03:01:11.218Z,10.60
2019-03-22T03:03:42.357Z,10.60
2019-03-22T03:06:11.989Z,10.70
2019-03-22T03:08:41.886Z,10.60
2019-03-22T03:11:12.129Z,10.60
2019-03-22T03:13:41.910Z,10.60
2019-03-22T03:16:11.718Z,10.60
2019-03-22T03:18:41.411Z,10.60
2019-03-22T03:21:11.390Z,10.50
2019-03-22T03:23:41.167Z,10.50
2019-03-22T03:26:10.804Z,10.50
2019-03-22T03:28:40.567Z,10.50
2019-03-22T03:31:10.184Z,10.50
2019-03-22T03:33:40.104Z,10.50
2019-03-22T03:36:10.238Z,10.50
2019-03-22T03:38:40.208Z,10.50
2019-03-22T03:41:09.615Z,10.50
2019-03-22T03:43:39.434Z,10.50
2019-03-22T03:46:09.079Z,10.50
2019-03-22T03:48:39.351Z,10.50
2019-03-22T03:51:09.266Z,10.50
2019-03-22T03:53:38.916Z,10.50
2019-03-22T03:56:09.088Z,10.50
2019-03-22T03:58:51.449Z,10.40
2019-03-22T04:01:10.260Z,10.40
2019-03-22T04:03:39.891Z,10.40
2019-03-22T04:06:09.516Z,10.40
2019-03-22T04:08:39.196Z,10.40
2019-03-22T04:11:09.507Z,10.40
2019-03-22T04:13:39.168Z,10.40
2019-03-22T04:16:08.808Z,10.40
2019-03-22T04:18:38.700Z,10.40
2019-03-22T04:21:08.860Z,10.40
2019-03-22T04:23:38.831Z,10.30
2019-03-22T04:26:08.646Z,10.30
2019-03-22T04:28:38.325Z,10.40
2019-03-22T04:31:08.231Z,10.40
2019-03-22T04:33:38.849Z,10.30
2019-03-22T04:36:08.250Z,10.30
2019-03-22T04:38:38.148Z,10.30
2019-03-22T04:41:08.323Z,10.30
2019-03-22T04:43:38.031Z,10.30
2019-03-22T04:46:08.442Z,10.30
2019-03-22T04:48:39.617Z,10.30
2019-03-22T04:51:10.450Z,10.30
2019-03-22T04:53:46.816Z,10.30
2019-03-22T04:56:18.431Z,10.30
2019-03-22T04:58:50.372Z,10.30
2019-03-22T05:01:21.230Z,10.30
2019-03-22T05:03:51.999Z,10.30
2019-03-22T05:06:22.525Z,10.30
2019-03-22T05:08:55.080Z,10.30
2019-03-22T05:11:25.741Z,10.30
2019-03-22T05:13:58.795Z,10.30
2019-03-22T05:16:30.427Z,10.30
2019-03-22T05:19:02.170Z,10.30
2019-03-22T05:21:34.703Z,10.30
2019-03-22T05:24:05.641Z,10.30
2019-03-22T05:26:37.465Z,10.30
2019-03-22T05:29:08.735Z,10.30
2019-03-22T05:32:09.589Z,10.30
2019-03-22T05:34:38.973Z,10.30
2019-03-22T05:37:08.815Z,10.30
2019-03-22T05:39:38.481Z,10.30
2019-03-22T05:42:08.027Z,10.30
2019-03-22T05:44:37.818Z,10.30
2019-03-22T05:47:07.206Z,10.30
2019-03-22T05:49:37.718Z,10.30
2019-03-22T05:52:10.438Z,10.30
2019-03-22T05:54:40.067Z,10.30
2019-03-22T05:57:13.542Z,10.40
2019-03-22T05:59:42.699Z,10.30
2019-03-22T06:02:12.402Z,10.30
2019-03-22T06:04:42.549Z,10.30
2019-03-22T06:07:12.494Z,10.40
2019-03-22T06:09:42.150Z,10.30
2019-03-22T06:12:12.258Z,10.40
2019-03-22T06:14:41.714Z,10.30
2019-03-22T06:17:11.764Z,10.30
2019-03-22T06:19:42.157Z,10.30
2019-03-22T06:22:11.806Z,10.30
2019-03-22T06:24:42.127Z,10.30
2019-03-22T06:27:11.866Z,10.30
2019-03-22T06:29:41.254Z,10.30
2019-03-22T06:32:11.119Z,10.30
2019-03-22T06:34:40.579Z,10.30
2019-03-22T06:37:09.896Z,10.30
2019-03-22T06:39:40.387Z,10.30
2019-03-22T06:42:09.715Z,10.40
2019-03-22T06:44:39.188Z,10.40
2019-03-22T06:47:10.963Z,10.40
2019-03-22T06:49:41.131Z,10.40
2019-03-22T06:52:10.970Z,10.40
2019-03-22T06:54:40.292Z,10.40
2019-03-22T06:57:10.184Z,10.40
2019-03-22T06:59:39.512Z,10.50
2019-03-22T07:02:09.160Z,10.40
2019-03-22T07:04:38.805Z,10.50
2019-03-22T07:07:08.931Z,10.50
2019-03-22T07:09:38.947Z,10.50
2019-03-22T07:12:08.938Z,10.50
2019-03-22T07:14:38.267Z,10.50
2019-03-22T07:17:07.614Z,10.60
2019-03-22T07:19:37.514Z,10.60
2019-03-22T07:22:07.135Z,10.60
2019-03-22T07:24:36.789Z,10.70
2019-03-22T07:27:06.300Z,10.70
2019-03-22T07:29:35.738Z,10.70
2019-03-22T07:32:05.862Z,10.70
2019-03-22T07:34:35.834Z,10.70
2019-03-22T07:37:05.270Z,10.70
2019-03-22T07:39:35.418Z,10.80
2019-03-22T07:42:05.492Z,10.80
2019-03-22T07:44:35.730Z,10.80
2019-03-22T07:47:05.209Z,10.80
2019-03-22T07:49:34.831Z,10.80
2019-03-22T07:52:04.534Z,10.80
2019-03-22T07:54:34.708Z,10.80
2019-03-22T07:57:04.453Z,10.80
2019-03-22T07:59:34.015Z,10.90
2019-03-22T08:02:03.786Z,10.80
2019-03-22T08:04:33.673Z,10.80
2019-03-22T08:07:03.627Z,10.80
2019-03-22T08:09:33.669Z,10.80
2019-03-22T08:12:03.491Z,10.80
2019-03-22T08:14:33.366Z,10.80
2019-03-22T08:17:03.004Z,10.90
2019-03-22T08:19:32.342Z,10.90
2019-03-22T08:22:01.950Z,10.90
2019-03-22T08:24:31.635Z,10.90
2019-03-22T08:27:01.502Z,11.00
2019-03-22T08:29:31.749Z,11.00
2019-03-22T08:32:01.491Z,11.00
2019-03-22T08:34:31.680Z,11.10
2019-03-22T08:37:02.125Z,11.10
2019-03-22T08:39:31.662Z,11.10
2019-03-22T08:42:01.135Z,11.10
2019-03-22T08:44:30.818Z,11.10
2019-03-22T08:47:00.335Z,11.20
2019-03-22T08:49:30.849Z,11.20
2019-03-22T08:52:01.504Z,11.20
2019-03-22T08:54:31.474Z,11.30
2019-03-22T08:57:01.167Z,11.30
2019-03-22T08:59:30.977Z,11.30
2019-03-22T09:02:00.738Z,11.30
2019-03-22T09:04:30.414Z,11.30
2019-03-22T09:06:59.841Z,11.40
2019-03-22T09:09:40.903Z,11.40
2019-03-22T09:12:01.605Z,11.40
2019-03-22T09:14:31.570Z,11.50
2019-03-22T09:17:02.497Z,11.50
2019-03-22T09:19:31.906Z,11.60
2019-03-22T09:22:01.592Z,11.60
2019-03-22T09:24:39.189Z,11.70
2019-03-22T09:27:02.136Z,11.70
2019-03-22T09:29:32.068Z,11.80
2019-03-22T09:32:02.012Z,11.80
2019-03-22T09:34:34.037Z,11.90
2019-03-22T09:37:04.126Z,12.00
2019-03-22T09:39:34.602Z,12.00
2019-03-22T09:42:04.087Z,12.10
2019-03-22T09:44:42.889Z,12.10
2019-03-22T09:47:04.468Z,12.10
2019-03-22T09:49:34.639Z,12.20
2019-03-22T09:52:04.569Z,12.30
2019-03-22T09:54:34.232Z,12.40
2019-03-22T09:57:04.537Z,12.40
2019-03-22T09:59:34.521Z,12.50
2019-03-22T10:02:04.224Z,12.50
2019-03-22T10:04:33.657Z,12.60
2019-03-22T10:07:03.108Z,12.60
2019-03-22T10:09:32.821Z,12.70
2019-03-22T10:12:02.485Z,12.60
2019-03-22T10:14:32.149Z,12.70
2019-03-22T10:17:01.843Z,12.70
2019-03-22T10:19:31.897Z,12.80
2019-03-22T10:22:01.565Z,12.80
2019-03-22T10:24:31.301Z,12.80
2019-03-22T10:27:00.671Z,12.90
2019-03-22T10:29:30.458Z,12.90
2019-03-22T10:32:00.479Z,12.90
2019-03-22T10:34:30.423Z,13.00
2019-03-22T10:37:00.773Z,13.10
2019-03-22T10:39:30.630Z,13.20
2019-03-22T10:42:00.353Z,13.20
2019-03-22T10:44:29.742Z,13.30
2019-03-22T10:46:59.382Z,13.40
2019-03-22T10:49:29.358Z,13.50
2019-03-22T10:51:59.096Z,13.50
2019-03-22T10:54:28.794Z,13.50
2019-03-22T10:56:58.216Z,13.60
2019-03-22T10:59:27.618Z,13.70
2019-03-22T11:02:03.118Z,13.70
2019-03-22T11:04:28.965Z,13.70
2019-03-22T11:07:02.735Z,13.80
2019-03-22T11:09:33.195Z,14.00
2019-03-22T11:12:11.902Z,14.10
2019-03-22T11:14:34.518Z,14.20
2019-03-22T11:17:04.430Z,14.30
2019-03-22T11:19:33.758Z,14.40
2019-03-22T11:22:03.585Z,14.40
2019-03-22T11:24:33.299Z,14.50
2019-03-22T11:27:03.535Z,14.60
2019-03-22T11:29:33.463Z,14.70
2019-03-22T11:32:12.093Z,14.80
2019-03-22T11:34:34.006Z,14.80
2019-03-22T11:37:03.520Z,14.90
2019-03-22T11:39:32.829Z,14.80
2019-03-22T11:42:02.626Z,14.70
2019-03-22T11:44:32.981Z,14.70
2019-03-22T11:47:02.766Z,14.60
2019-03-22T11:49:33.480Z,14.60
2019-03-22T11:52:03.397Z,14.60
2019-03-22T11:54:33.055Z,14.60
2019-03-22T11:57:03.557Z,14.60
2019-03-22T11:59:33.247Z,14.60
2019-03-22T12:02:03.178Z,14.70
2019-03-22T12:04:32.903Z,14.70
2019-03-22T12:07:02.330Z,14.70
2019-03-22T12:09:31.710Z,14.70
2019-03-22T12:12:01.129Z,14.80
2019-03-22T12:14:30.724Z,14.80
2019-03-22T12:17:00.176Z,14.80
2019-03-22T12:19:29.520Z,14.90
2019-03-22T12:21:58.903Z,15.00
2019-03-22T12:24:28.590Z,15.00
2019-03-22T12:26:59.062Z,15.10
2019-03-22T12:29:28.774Z,15.10
2019-03-22T12:31:59.612Z,15.20
2019-03-22T12:34:32.949Z,15.20
2019-03-22T12:37:02.887Z,15.30
2019-03-22T12:39:32.508Z,15.30
2019-03-22T12:42:02.190Z,15.40
2019-03-22T12:44:31.708Z,15.40
2019-03-22T12:47:01.736Z,15.40
2019-03-22T12:49:32.035Z,15.40
2019-03-22T12:52:02.131Z,15.50
2019-03-22T12:54:31.986Z,15.50
2019-03-22T12:57:01.409Z,15.60
2019-03-22T12:59:31.474Z,15.70
2019-03-22T13:02:01.371Z,15.70
2019-03-22T13:04:30.915Z,15.70
2019-03-22T13:07:00.602Z,15.80
2019-03-22T13:09:30.531Z,15.80
2019-03-22T13:11:59.942Z,15.90
2019-03-22T13:14:30.112Z,15.90
2019-03-22T13:16:59.509Z,15.90
2019-03-22T13:19:29.190Z,16.00
2019-03-22T13:21:58.876Z,16.00
2019-03-22T13:24:28.472Z,16.00
2019-03-22T13:26:58.096Z,16.00
2019-03-22T13:29:27.514Z,16.10
2019-03-22T13:31:56.871Z,16.10
2019-03-22T13:34:26.478Z,16.10
2019-03-22T13:36:56.383Z,16.10
2019-03-22T13:39:26.045Z,16.20
2019-03-22T13:41:55.583Z,16.20
2019-03-22T13:44:24.953Z,16.20
2019-03-22T13:46:54.460Z,16.20
2019-03-22T13:49:24.097Z,16.30
2019-03-22T13:51:53.822Z,16.40
2019-03-22T13:54:23.448Z,16.40
2019-03-22T13:56:53.358Z,16.40
2019-03-22T13:59:23.526Z,16.40
2019-03-22T14:01:53.478Z,16.50
2019-03-22T14:04:23.830Z,16.50
2019-03-22T14:06:53.988Z,16.50
2019-03-22T14:09:23.613Z,16.50
2019-03-22T14:11:53.538Z,16.60
2019-03-22T14:14:23.488Z,16.60
2019-03-22T14:16:54.075Z,16.60
2019-03-22T14:19:23.673Z,16.60
2019-03-22T14:21:53.322Z,16.50
2019-03-22T14:24:23.340Z,16.40
2019-03-22T14:26:52.812Z,16.40
2019-03-22T14:29:22.522Z,16.40
2019-03-22T14:31:51.997Z,16.40
2019-03-22T14:34:21.331Z,16.40
2019-03-22T14:36:51.244Z,16.40
2019-03-22T14:39:20.745Z,16.40
2019-03-22T14:41:50.232Z,16.40
2019-03-22T14:44:25.333Z,16.40
2019-03-22T14:46:52.360Z,16.50
2019-03-22T14:49:21.872Z,16.50
2019-03-22T14:51:52.227Z,16.50
2019-03-22T14:54:21.902Z,16.50
2019-03-22T14:56:51.833Z,16.50
2019-03-22T14:59:21.712Z,16.50
2019-03-22T15:01:53.119Z,16.50
2019-03-22T15:04:22.490Z,16.50
2019-03-22T15:06:52.463Z,16.50
2019-03-22T15:09:22.131Z,16.40
2019-03-22T15:11:52.012Z,16.40
2019-03-22T15:14:38.926Z,16.40
2019-03-22T15:17:56.179Z,16.30
2019-03-22T15:20:43.432Z,16.30
2019-03-22T15:23:30.641Z,16.20
2019-03-22T15:26:28.330Z,16.20
2019-03-22T15:29:25.385Z,16.20
2019-03-22T15:32:32.220Z,16.20
2019-03-22T15:35:19.328Z,16.10
2019-03-22T15:38:06.387Z,16.10
2019-03-22T15:40:36.007Z,16.10
2019-03-22T15:43:05.895Z,16.00
2019-03-22T15:45:35.559Z,16.00
2019-03-22T15:48:05.046Z,16.00
2019-03-22T15:50:35.443Z,15.90
2019-03-22T15:53:05.182Z,15.90
2019-03-22T15:55:34.985Z,15.90
2019-03-22T15:58:05.355Z,15.90
2019-03-22T16:00:34.820Z,15.80
2019-03-22T16:03:04.776Z,15.80
2019-03-22T16:05:35.228Z,15.70
2019-03-22T16:08:04.798Z,15.80
2019-03-22T16:10:35.067Z,15.70
2019-03-22T16:13:05.045Z,15.70
2019-03-22T16:15:35.446Z,15.70
2019-03-22T16:18:04.962Z,15.70
2019-03-22T16:20:34.854Z,15.60
2019-03-22T16:23:07.370Z,15.60
2019-03-22T16:25:37.310Z,15.60
2019-03-22T16:28:07.271Z,15.60
2019-03-22T16:30:37.034Z,15.60
2019-03-22T16:33:06.742Z,15.50
2019-03-22T16:35:36.119Z,15.50
2019-03-22T16:38:06.129Z,15.40
2019-03-22T16:40:35.802Z,15.40
2019-03-22T16:43:06.178Z,15.40
2019-03-22T16:45:40.776Z,15.30
2019-03-22T16:48:10.390Z,15.30
2019-03-22T16:50:40.381Z,15.30
2019-03-22T16:53:09.871Z,15.20
2019-03-22T16:55:39.753Z,15.20
2019-03-22T16:58:10.204Z,15.20
2019-03-22T17:00:39.733Z,15.10
2019-03-22T17:03:09.514Z,15.10
2019-03-22T17:05:40.199Z,15.00
2019-03-22T17:08:10.035Z,15.00
2019-03-22T17:10:40.095Z,15.00
2019-03-22T17:13:09.783Z,14.90
2019-03-22T17:15:40.523Z,14.80
2019-03-22T17:18:10.806Z,14.80
2019-03-22T17:20:40.743Z,14.70
2019-03-22T17:23:10.776Z,14.60
2019-03-22T17:25:41.099Z,14.60
2019-03-22T17:28:10.714Z,14.50
2019-03-22T17:30:41.701Z,14.50
2019-03-22T17:33:11.616Z,14.40
2019-03-22T17:35:41.719Z,14.30
2019-03-22T17:38:11.666Z,14.20
2019-03-22T17:40:42.162Z,14.20
2019-03-22T17:43:12.455Z,14.10
2019-03-22T17:45:41.841Z,14.00
2019-03-22T17:48:11.592Z,14.00
2019-03-22T17:50:41.243Z,13.90
2019-03-22T17:53:11.226Z,13.80
2019-03-22T17:55:42.863Z,13.70
2019-03-22T17:58:13.506Z,13.70
2019-03-22T18:00:43.579Z,13.50
2019-03-22T18:03:13.486Z,13.40
2019-03-22T18:05:43.882Z,13.40
2019-03-22T18:08:13.526Z,13.30
2019-03-22T18:10:43.145Z,13.20
2019-03-22T18:13:12.660Z,13.20
2019-03-22T18:15:42.028Z,13.10
2019-03-22T18:18:11.469Z,13.00
2019-03-22T18:20:41.421Z,12.90
2019-03-22T18:23:10.818Z,12.90
2019-03-22T18:25:40.148Z,12.80
2019-03-22T18:28:09.993Z,12.80
2019-03-22T18:30:39.398Z,12.70
2019-03-22T18:33:10.401Z,12.60
2019-03-22T18:35:40.277Z,12.60
2019-03-22T18:38:10.848Z,12.50
2019-03-22T18:40:40.851Z,12.50
2019-03-22T18:43:10.247Z,12.40
2019-03-22T18:45:39.848Z,12.40
2019-03-22T18:48:09.766Z,12.30
2019-03-22T18:50:39.620Z,12.30
2019-03-22T18:53:09.282Z,12.20
2019-03-22T18:55:39.173Z,12.20
2019-03-22T18:58:09.934Z,12.20
2019-03-22T19:00:39.601Z,12.10
2019-03-22T19:03:09.930Z,12.10
2019-03-22T19:05:39.702Z,12.00
2019-03-22T19:08:09.512Z,12.00
2019-03-22T19:10:38.946Z,11.90
2019-03-22T19:13:09.033Z,11.90
2019-03-22T19:15:38.940Z,11.90
2019-03-22T19:18:08.771Z,11.90
2019-03-22T19:20:38.542Z,11.90
2019-03-22T19:23:08.328Z,11.80
2019-03-22T19:25:38.060Z,11.80
2019-03-22T19:28:08.171Z,11.80
2019-03-22T19:30:38.945Z,11.80
2019-03-22T19:33:08.345Z,11.70
2019-03-22T19:35:38.261Z,11.70
2019-03-22T19:38:08.088Z,11.60
2019-03-22T19:40:38.048Z,11.60
2019-03-22T19:43:08.139Z,11.60
2019-03-22T19:45:38.286Z,11.50
2019-03-22T19:48:08.157Z,11.50
2019-03-22T19:50:38.188Z,11.50
2019-03-22T19:53:08.102Z,11.50
2019-03-22T19:55:38.126Z,11.50
2019-03-22T19:58:07.805Z,11.50
2019-03-22T20:00:37.787Z,11.50
2019-03-22T20:03:07.459Z,11.40
2019-03-22T20:05:42.384Z,11.40
2019-03-22T20:08:13.917Z,11.50
2019-03-22T20:10:43.691Z,11.40
2019-03-22T20:13:13.328Z,11.50
2019-03-22T20:15:42.998Z,11.50
2019-03-22T20:18:13.544Z,11.50
2019-03-22T20:20:43.276Z,11.50
2019-03-22T20:23:13.340Z,11.60
2019-03-22T20:25:42.819Z,11.60
2019-03-22T20:28:13.627Z,11.70
2019-03-22T20:30:44.283Z,11.70
2019-03-22T20:33:14.706Z,11.70
2019-03-22T20:35:44.676Z,11.70
2019-03-22T20:38:14.288Z,11.70
2019-03-22T20:40:44.250Z,11.70
2019-03-22T20:43:14.495Z,11.70
2019-03-22T20:45:44.118Z,11.70
2019-03-22T20:48:14.080Z,11.70
2019-03-22T20:50:43.744Z,11.70
2019-03-22T20:53:13.451Z,11.70
2019-03-22T20:55:42.946Z,11.70
2019-03-22T20:58:12.441Z,11.70
2019-03-22T21:00:41.977Z,11.70
2019-03-22T21:03:11.658Z,11.70
2019-03-22T21:05:41.239Z,11.70
2019-03-22T21:08:11.026Z,11.70
2019-03-22T21:10:41.084Z,11.70
2019-03-22T21:13:11.058Z,11.70
2019-03-22T21:15:40.671Z,11.70
2019-03-22T21:18:10.887Z,11.70
2019-03-22T21:20:43.486Z,11.70
2019-03-22T21:23:13.106Z,11.60
2019-03-22T21:25:42.852Z,11.60
2019-03-22T21:28:12.498Z,11.60
2019-03-22T21:30:42.202Z,11.60
2019-03-22T21:33:11.986Z,11.60
2019-03-22T21:35:41.446Z,11.60
2019-03-22T21:38:11.430Z,11.60
2019-03-22T21:40:41.039Z,11.60
2019-03-22T21:43:11.499Z,11.60
2019-03-22T21:45:41.722Z,11.60
2019-03-22T21:48:11.440Z,11.60
2019-03-22T21:50:41.603Z,11.60
2019-03-22T21:53:11.022Z,11.60
2019-03-22T21:55:40.793Z,11.60
2019-03-22T21:58:10.561Z,11.60
2019-03-22T22:00:40.274Z,11.60
2019-03-22T22:03:10.273Z,11.70
2019-03-22T22:05:47.470Z,11.70
2019-03-22T22:08:11.910Z,11.70
2019-03-22T22:10:41.817Z,11.70
2019-03-22T22:13:12.810Z,11.70
2019-03-22T22:15:42.348Z,11.70
2019-03-22T22:18:13.094Z,11.70
2019-03-22T22:20:42.469Z,11.80
2019-03-22T22:23:12.206Z,11.80
2019-03-22T22:25:42.300Z,11.80
2019-03-22T22:28:13.302Z,11.80
2019-03-22T22:30:43.001Z,11.80
2019-03-22T22:33:12.518Z,11.80
2019-03-22T22:35:42.643Z,11.70
2019-03-22T22:38:12.367Z,11.70
2019-03-22T22:40:42.428Z,11.70
2019-03-22T22:43:11.929Z,11.70
2019-03-22T22:45:41.314Z,11.70
2019-03-22T22:48:11.380Z,11.60
2019-03-22T22:50:40.713Z,11.60
2019-03-22T22:53:10.786Z,11.50
2019-03-22T22:55:40.218Z,11.50
2019-03-22T22:58:10.211Z,11.50
2019-03-22T23:00:40.968Z,11.40
2019-03-22T23:03:10.751Z,11.30
2019-03-22T23:05:40.134Z,11.30
2019-03-22T23:08:09.621Z,11.30
2019-03-22T23:10:39.629Z,11.20
2019-03-22T23:13:08.974Z,11.20
2019-03-22T23:15:38.695Z,11.10
2019-03-22T23:18:08.130Z,11.10
2019-03-22T23:20:37.591Z,11.10
2019-03-22T23:23:07.466Z,11.10
2019-03-22T23:25:36.985Z,11.00
2019-03-22T23:28:06.944Z,11.00
2019-03-22T23:30:36.429Z,11.00
2019-03-22T23:33:06.214Z,11.00
2019-03-22T23:35:36.448Z,11.10
2019-03-22T23:38:06.262Z,11.10
2019-03-22T23:40:36.528Z,11.10
2019-03-22T23:43:06.528Z,11.10
2019-03-22T23:45:36.474Z,11.10
2019-03-22T23:48:06.211Z,11.10
2019-03-22T23:50:35.982Z,11.10
2019-03-22T23:53:05.475Z,11.10
2019-03-22T23:55:35.498Z,11.10
2019-03-22T23:58:05.092Z,11.00
